Time;durP1;ratioP1;P1;durP2;ratioP2;P2;SDS_P1;SDS_P2;PMS_P1;PMS_P2;Temp;Humidity;BMP_temperature;BMP_pressure;BME280_temperature;BME280_humidity;BME280_pressure;Samples;Min_cycle;Max_cycle;Signal;HPM_P1;HPM_P2
2023/09/05 00:01:40;;;;;;;4.67;4.03;;;21.40;92.50;;;;;;10496326;28;20508;-68
2023/09/05 00:06:41;;;;;;;4.87;3.93;;;21.40;92.50;;;;;;10485767;28;20404;-68
2023/09/05 00:11:41;;;;;;;5.03;4.00;;;21.40;92.50;;;;;;10490673;28;20405;-68
2023/09/05 00:16:42;;;;;;;5.47;3.70;;;21.30;92.50;;;;;;10487728;28;20409;-67
2023/09/05 00:21:42;;;;;;;4.70;4.00;;;21.30;92.50;;;;;;10484453;28;20490;-68
2023/09/05 00:26:45;;;;;;;4.97;3.80;;;21.30;92.50;;;;;;10492590;28;20748;-68
2023/09/05 00:31:47;;;;;;;6.25;4.10;;;21.30;92.50;;;;;;10483721;28;20395;-68
2023/09/05 00:36:47;;;;;;;4.80;3.80;;;21.20;92.40;;;;;;10492169;28;20524;-68
2023/09/05 00:41:48;;;;;;;4.93;3.88;;;21.20;92.40;;;;;;10495450;28;20459;-67
2023/09/05 00:46:49;;;;;;;5.20;4.00;;;21.20;92.40;;;;;;10495027;28;20891;-69
2023/09/05 00:51:51;;;;;;;4.40;3.63;;;21.10;92.40;;;;;;10491794;28;20984;-68
2023/09/05 00:56:53;;;;;;;4.43;3.70;;;21.00;92.30;;;;;;10481855;28;20424;-68
2023/09/05 01:01:57;;;;;;;4.78;3.70;;;21.10;92.40;;;;;;10487492;28;20494;-68
2023/09/05 01:07:11;;;;;;;4.75;3.90;;;21.10;92.40;;;;;;10484479;28;20408;-68
2023/09/05 01:12:12;;;;;;;4.45;3.72;;;21.10;92.40;;;;;;10487120;28;21640;-67
2023/09/05 01:17:12;;;;;;;4.83;3.80;;;21.00;92.30;;;;;;10501951;28;20709;-68
2023/09/05 01:22:21;;;;;;;5.43;4.10;;;21.40;92.40;;;;;;10480543;28;20421;-68
2023/09/05 01:27:24;;;;;;;4.53;3.60;;;20.90;92.30;;;;;;10488656;28;20682;-69
2023/09/05 01:32:25;;;;;;;4.33;3.70;;;20.90;92.30;;;;;;10496978;28;20408;-68
2023/09/05 01:37:26;;;;;;;5.13;3.80;;;20.90;92.30;;;;;;10487754;28;20413;-69
2023/09/05 01:42:26;;;;;;;5.07;4.00;;;20.90;92.30;;;;;;10485536;28;20399;-68
2023/09/05 01:47:27;;;;;;;3.95;3.50;;;20.80;92.30;;;;;;10489416;28;20410;-68
2023/09/05 01:52:28;;;;;;;4.90;3.83;;;20.80;92.30;;;;;;10482661;28;20430;-68
2023/09/05 01:57:28;;;;;;;4.32;3.70;;;20.80;92.20;;;;;;10487816;28;20411;-69
2023/09/05 02:02:29;;;;;;;4.63;4.05;;;20.80;92.20;;;;;;10483196;28;20452;-68
2023/09/05 02:07:29;;;;;;;5.32;4.00;;;20.80;92.20;;;;;;10489207;28;20417;-69
2023/09/05 02:12:30;;;;;;;5.40;3.97;;;20.70;92.20;;;;;;10487844;28;21066;-68
2023/09/05 02:17:34;;;;;;;4.43;3.92;;;20.70;92.20;;;;;;10488365;28;20411;-68
2023/09/05 02:22:35;;;;;;;4.80;3.80;;;20.80;92.30;;;;;;10491763;28;20393;-68
2023/09/05 02:27:35;;;;;;;4.77;3.90;;;20.70;92.30;;;;;;10485680;28;20407;-68
2023/09/05 02:32:36;;;;;;;5.07;3.77;;;20.70;92.30;;;;;;10490138;28;20417;-68
2023/09/05 02:37:37;;;;;;;4.40;3.80;;;20.60;92.20;;;;;;10489151;28;20408;-68
2023/09/05 02:42:37;;;;;;;6.07;4.20;;;20.60;92.20;;;;;;10482269;28;20426;-69
2023/09/05 02:47:39;;;;;;;5.07;3.72;;;20.60;92.20;;;;;;10492971;28;20489;-68
2023/09/05 02:52:39;;;;;;;4.85;4.10;;;20.50;92.20;;;;;;10491444;28;20435;-67
2023/09/05 02:57:40;;;;;;;4.53;3.83;;;20.50;92.20;;;;;;10503413;28;20496;-68
2023/09/05 03:02:42;;;;;;;5.13;3.93;;;20.50;92.20;;;;;;10492634;28;20395;-68
2023/09/05 03:07:43;;;;;;;4.45;3.78;;;20.50;92.20;;;;;;10494798;28;20501;-69
2023/09/05 03:12:43;;;;;;;4.77;3.90;;;20.40;92.20;;;;;;10497504;28;20402;-68
2023/09/05 03:17:45;;;;;;;4.40;3.70;;;20.40;92.20;;;;;;10490204;28;20942;-68
2023/09/05 03:22:46;;;;;;;4.40;3.70;;;20.40;92.20;;;;;;10487347;28;20398;-68
2023/09/05 03:27:46;;;;;;;4.80;4.03;;;20.40;92.20;;;;;;10492281;28;20418;-68
2023/09/05 03:32:47;;;;;;;4.73;3.90;;;20.40;92.30;;;;;;10483714;28;20415;-68
2023/09/05 03:37:48;;;;;;;4.30;3.90;;;20.40;92.30;;;;;;10502874;28;20428;-69
2023/09/05 03:42:48;;;;;;;4.70;4.00;;;20.30;92.30;;;;;;10493900;28;20401;-68
2023/09/05 03:47:49;;;;;;;5.38;4.15;;;20.30;92.30;;;;;;10493978;28;20394;-68
2023/09/05 03:52:50;;;;;;;5.07;4.10;;;20.30;92.30;;;;;;10492790;28;20489;-68
2023/09/05 03:57:50;;;;;;;4.67;4.03;;;20.30;92.30;;;;;;10501379;28;20835;-68
2023/09/05 04:02:51;;;;;;;5.20;3.90;;;20.20;92.30;;;;;;10499426;28;20399;-67
2023/09/05 04:07:51;;;;;;;5.17;3.97;;;20.20;92.30;;;;;;10496530;28;20481;-67
2023/09/05 04:12:52;;;;;;;4.53;4.03;;;20.20;92.30;;;;;;10493604;28;20662;-68
2023/09/05 04:17:53;;;;;;;5.20;4.23;;;20.20;92.30;;;;;;10491885;28;20415;-68
2023/09/05 04:22:53;;;;;;;5.00;4.03;;;20.20;92.30;;;;;;10487340;28;20410;-68
2023/09/05 04:27:54;;;;;;;5.13;3.97;;;20.20;92.30;;;;;;10497386;28;20407;-68
2023/09/05 04:32:55;;;;;;;4.60;4.07;;;20.20;92.20;;;;;;10500928;28;20411;-68
2023/09/05 04:37:56;;;;;;;4.90;4.10;;;20.10;92.50;;;;;;10503790;28;20418;-68
2023/09/05 04:42:57;;;;;;;5.27;4.37;;;20.10;92.20;;;;;;10486230;28;20399;-68
2023/09/05 04:47:57;;;;;;;4.97;4.23;;;20.10;92.20;;;;;;10496089;28;20624;-69
2023/09/05 04:52:58;;;;;;;5.43;4.10;;;20.10;92.20;;;;;;10502392;28;20401;-68
2023/09/05 04:57:58;;;;;;;4.90;4.10;;;20.10;92.20;;;;;;10493119;28;20415;-68
2023/09/05 05:02:59;;;;;;;4.70;4.03;;;20.00;92.20;;;;;;10499624;28;20439;-68
2023/09/05 05:08:00;;;;;;;5.95;4.20;;;20.00;92.20;;;;;;10485733;28;20418;-69
2023/09/05 05:13:01;;;;;;;5.03;4.05;;;20.00;92.20;;;;;;10490525;28;20852;-67
2023/09/05 05:18:02;;;;;;;4.60;4.10;;;20.00;92.20;;;;;;10488981;28;20417;-68
2023/09/05 05:23:04;;;;;;;5.30;4.03;;;20.00;92.20;;;;;;10496568;28;20931;-69
2023/09/05 05:28:05;;;;;;;5.65;4.38;;;20.00;92.20;;;;;;10489219;28;20418;-68
2023/09/05 05:33:06;;;;;;;5.20;4.17;;;20.00;92.50;;;;;;10497283;28;20426;-67
2023/09/05 05:38:06;;;;;;;6.15;4.50;;;19.90;92.60;;;;;;10499975;28;20427;-68
2023/09/05 05:43:07;;;;;;;6.65;4.25;;;19.90;92.50;;;;;;10487183;28;20446;-67
2023/09/05 05:48:10;;;;;;;7.07;4.03;;;19.90;92.50;;;;;;10482872;28;20794;-68
2023/09/05 05:53:12;;;;;;;5.00;3.80;;;19.90;92.40;;;;;;10471677;28;20415;-67
2023/09/05 05:58:14;;;;;;;5.15;3.95;;;19.90;92.40;;;;;;10481019;28;20426;-68
2023/09/05 06:03:16;;;;;;;4.72;4.22;;;19.00;92.20;;;;;;10462562;28;20931;-67
2023/09/05 06:08:17;;;;;;;5.63;4.20;;;19.90;92.50;;;;;;10471152;28;20411;-67
2023/09/05 06:13:17;;;;;;;4.90;4.22;;;19.90;92.50;;;;;;10479189;28;20407;-68
2023/09/05 06:18:18;;;;;;;5.28;4.22;;;19.90;92.50;;;;;;10471303;28;20780;-68
2023/09/05 06:23:19;;;;;;;5.40;4.43;;;19.90;92.50;;;;;;10472563;28;20442;-67
2023/09/05 06:28:22;;;;;;;5.70;4.50;;;19.90;92.50;;;;;;10483097;28;20418;-67
2023/09/05 06:33:23;;;;;;;6.50;5.13;;;19.90;92.50;;;;;;10491179;28;20429;-69
2023/09/05 06:38:23;;;;;;;5.22;4.53;;;19.90;92.90;;;;;;10491792;28;20429;-68
2023/09/05 06:43:27;;;;;;;6.80;4.53;;;19.90;92.80;;;;;;10486871;28;20927;-69
2023/09/05 06:48:29;;;;;;;6.40;4.93;;;19.90;92.90;;;;;;10493507;28;20391;-68
2023/09/05 06:53:31;;;;;;;6.07;4.68;;;19.90;93.30;;;;;;10491198;28;20411;-68
2023/09/05 06:58:36;;;;;;;6.05;4.90;;;19.90;93.20;;;;;;10488000;28;20409;-69
2023/09/05 07:03:37;;;;;;;5.80;4.43;;;20.00;93.20;;;;;;10486128;28;20415;-68
2023/09/05 07:08:37;;;;;;;5.05;4.18;;;20.00;93.20;;;;;;10487897;28;20495;-68
2023/09/05 07:13:38;;;;;;;6.45;4.43;;;20.10;93.10;;;;;;10484922;28;20404;-67
2023/09/05 07:18:39;;;;;;;4.38;3.85;;;20.10;93.00;;;;;;10486436;28;20415;-68
2023/09/05 07:23:39;;;;;;;5.00;4.22;;;20.20;93.00;;;;;;10484776;28;20818;-69
2023/09/05 07:28:46;;;;;;;4.30;3.90;;;20.50;93.00;;;;;;10491576;28;20825;-68
2023/09/05 07:33:47;;;;;;;4.55;3.90;;;20.30;92.90;;;;;;10493992;28;20503;-69
2023/09/05 07:38:47;;;;;;;4.20;3.80;;;20.30;92.90;;;;;;10483311;28;20760;-68
2023/09/05 07:43:48;;;;;;;5.13;3.90;;;20.40;92.80;;;;;;10493264;28;20409;-68
2023/09/05 07:48:49;;;;;;;4.93;4.10;;;20.40;92.80;;;;;;10488484;28;20418;-68
2023/09/05 07:54:03;;;;;;;4.38;3.95;;;20.40;92.90;;;;;;10487264;28;20416;-68
2023/09/05 07:59:05;;;;;;;4.78;3.90;;;20.50;92.90;;;;;;10482958;28;20442;-67
2023/09/05 08:04:06;;;;;;;5.80;3.80;;;20.50;93.20;;;;;;10487553;28;20407;-66
2023/09/05 08:09:06;;;;;;;4.93;3.72;;;20.60;93.00;;;;;;10489465;28;20418;-68
2023/09/05 08:14:07;;;;;;;4.53;3.78;;;20.60;93.00;;;;;;10491589;28;20488;-68
2023/09/05 08:19:07;;;;;;;5.28;3.88;;;20.60;93.00;;;;;;10485448;28;20447;-68
2023/09/05 08:24:09;;;;;;;5.70;3.80;;;20.70;93.10;;;;;;10484488;28;20864;-68
2023/09/05 08:29:10;;;;;;;4.20;3.77;;;20.70;93.20;;;;;;10484201;28;20917;-68
2023/09/05 08:34:11;;;;;;;4.37;3.97;;;20.70;93.30;;;;;;10491199;28;20419;-68
2023/09/05 08:39:11;;;;;;;5.10;3.70;;;20.70;93.30;;;;;;10489795;28;20510;-68
2023/09/05 08:44:12;;;;;;;4.60;3.87;;;20.80;93.40;;;;;;10490954;28;20414;-68
2023/09/05 08:49:13;;;;;;;3.80;3.40;;;20.80;93.40;;;;;;10487699;28;20779;-68
2023/09/05 08:54:16;;;;;;;3.80;3.38;;;20.90;93.50;;;;;;10486209;28;20407;-68
2023/09/05 08:59:17;;;;;;;3.90;3.50;;;20.90;93.50;;;;;;10485103;28;20424;-68
2023/09/05 09:04:21;;;;;;;5.40;3.90;;;20.90;93.60;;;;;;10492239;28;20746;-67
2023/09/05 09:09:35;;;;;;;4.00;3.50;;;21.00;93.70;;;;;;10491035;28;20906;-67
2023/09/05 09:14:36;;;;;;;4.20;3.30;;;21.10;93.70;;;;;;10484739;28;20406;-68
2023/09/05 09:19:38;;;;;;;3.47;3.17;;;21.10;93.60;;;;;;10490755;28;20950;-68
2023/09/05 09:24:39;;;;;;;3.60;3.10;;;21.20;93.60;;;;;;10484480;28;20451;-68
2023/09/05 09:29:40;;;;;;;4.10;3.23;;;21.30;93.50;;;;;;10491403;28;20431;-67
2023/09/05 09:34:41;;;;;;;3.97;3.30;;;21.30;93.40;;;;;;10489657;28;20985;-68
2023/09/05 09:39:41;;;;;;;4.18;3.20;;;21.40;93.20;;;;;;10491680;28;20928;-67
2023/09/05 09:44:43;;;;;;;3.60;2.97;;;21.50;93.10;;;;;;10493310;28;20405;-68
2023/09/05 09:49:49;;;;;;;3.67;3.05;;;21.50;93.00;;;;;;10478858;28;20460;-68
2023/09/05 09:54:53;;;;;;;3.92;3.22;;;21.60;92.90;;;;;;10482787;28;20468;-68
2023/09/05 09:59:59;;;;;;;5.38;3.10;;;21.70;92.90;;;;;;10484974;28;20400;-68
2023/09/05 10:05:01;;;;;;;3.97;3.00;;;21.70;92.80;;;;;;10486007;28;20490;-68
2023/09/05 10:10:04;;;;;;;3.23;2.93;;;21.80;92.80;;;;;;10474962;28;20467;-68
2023/09/05 10:15:06;;;;;;;3.70;3.00;;;21.90;92.70;;;;;;10486367;28;20638;-68
2023/09/05 10:20:07;;;;;;;3.83;3.10;;;22.00;92.70;;;;;;10484635;28;20981;-69
2023/09/05 10:25:11;;;;;;;4.18;2.90;;;22.00;92.60;;;;;;10487957;28;20396;-68
2023/09/05 10:30:12;;;;;;;3.27;2.90;;;22.10;92.60;;;;;;10483676;28;20410;-68
2023/09/05 10:35:20;;;;;;;3.07;2.70;;;22.20;92.70;;;;;;10492634;28;20449;-68
2023/09/05 10:40:33;;;;;;;4.18;3.15;;;22.20;92.60;;;;;;10489411;28;20429;-67
2023/09/05 10:45:35;;;;;;;3.45;2.70;;;22.30;92.50;;;;;;10481984;28;20457;-68
2023/09/05 10:51:07;;;;;;;3.85;2.83;;;22.40;92.50;;;;;;10482179;28;20959;-68
2023/09/05 10:56:45;;;;;;;2.97;2.50;;;22.40;92.40;;;;;;10485826;28;20443;-68
2023/09/05 11:01:54;;;;;;;2.92;2.60;;;22.60;92.20;;;;;;10484004;28;20447;-69
2023/09/05 11:07:09;;;;;;;2.90;2.50;;;22.70;92.20;;;;;;10488385;28;20528;-69
2023/09/05 11:12:11;;;;;;;3.00;2.40;;;22.80;92.30;;;;;;10481445;28;20404;-67
2023/09/05 11:17:17;;;;;;;2.83;2.53;;;22.80;92.20;;;;;;10494573;28;20866;-68
2023/09/05 11:22:22;;;;;;;3.50;2.50;;;22.90;92.20;;;;;;10496509;28;20388;-68
2023/09/05 11:27:29;;;;;;;2.83;2.20;;;22.90;92.20;;;;;;10500306;28;20490;-68
2023/09/05 11:32:31;;;;;;;2.80;2.50;;;23.00;92.20;;;;;;10501132;28;20420;-67
2023/09/05 11:37:32;;;;;;;3.40;2.40;;;23.10;92.20;;;;;;10492874;28;20411;-68
2023/09/05 11:42:33;;;;;;;2.63;2.40;;;23.10;92.20;;;;;;10500731;28;20905;-68
2023/09/05 11:47:34;;;;;;;2.50;2.30;;;23.20;92.20;;;;;;10497344;28;20398;-68
2023/09/05 11:52:40;;;;;;;3.53;2.50;;;23.20;92.20;;;;;;10484696;28;20407;-68
2023/09/05 11:57:41;;;;;;;3.67;2.60;;;23.30;92.10;;;;;;10484735;28;20926;-68
2023/09/05 12:02:41;;;;;;;2.65;2.40;;;23.40;92.10;;;;;;10488450;28;20406;-68
2023/09/05 12:07:51;;;;;;;2.95;2.20;;;23.40;92.10;;;;;;10492764;28;20394;-68
2023/09/05 12:12:56;;;;;;;3.08;2.45;;;23.90;92.40;;;;;;10489411;28;20921;-68
2023/09/05 12:18:04;;;;;;;2.78;2.40;;;23.60;92.50;;;;;;10488508;28;20451;-68
2023/09/05 12:23:05;;;;;;;4.72;2.80;;;23.70;92.30;;;;;;10489457;28;20401;-68
2023/09/05 12:28:16;;;;;;;2.67;2.47;;;23.70;92.40;;;;;;10478867;28;20415;-68
2023/09/05 12:33:18;;;;;;;3.17;2.28;;;23.70;92.40;;;;;;10490939;28;20490;-68
2023/09/05 12:38:20;;;;;;;2.78;2.20;;;23.80;92.60;;;;;;10494956;28;20403;-68
2023/09/05 12:43:21;;;;;;;4.07;2.30;;;23.90;92.60;;;;;;10483826;28;20397;-68
2023/09/05 12:48:21;;;;;;;3.10;2.10;;;24.00;92.60;;;;;;10495848;28;20957;-68
2023/09/05 12:53:22;;;;;;;2.53;2.30;;;24.10;93.10;;;;;;10492479;28;20428;-68
2023/09/05 12:58:23;;;;;;;2.60;2.20;;;24.10;93.20;;;;;;10483875;28;20507;-68
2023/09/05 13:03:25;;;;;;;2.97;2.27;;;24.10;93.10;;;;;;10494032;28;20867;-68
2023/09/05 13:08:26;;;;;;;2.50;2.10;;;24.20;93.40;;;;;;10494144;28;20497;-68
2023/09/05 13:13:27;;;;;;;2.67;2.13;;;24.30;93.40;;;;;;10488989;28;20406;-68
2023/09/05 13:18:27;;;;;;;3.28;2.20;;;24.30;93.50;;;;;;10497997;28;20471;-68
2023/09/05 13:23:28;;;;;;;2.53;2.20;;;24.40;93.80;;;;;;10491254;28;20398;-68
2023/09/05 13:28:28;;;;;;;3.45;2.30;;;24.50;94.10;;;;;;10496125;28;20399;-68
2023/09/05 13:33:29;;;;;;;2.77;2.20;;;24.50;94.00;;;;;;10488087;28;20509;-70
2023/09/05 13:38:30;;;;;;;3.50;2.20;;;24.60;94.10;;;;;;10487063;28;20423;-70
2023/09/05 13:43:31;;;;;;;3.20;2.40;;;24.70;94.20;;;;;;10495631;28;20456;-69
2023/09/05 13:48:32;;;;;;;2.30;2.10;;;24.80;94.40;;;;;;10483009;28;20807;-70
2023/09/05 13:53:32;;;;;;;2.70;2.10;;;24.90;94.40;;;;;;10485466;28;20417;-69
2023/09/05 13:58:33;;;;;;;3.50;2.20;;;25.00;94.20;;;;;;10491668;28;20407;-71
2023/09/05 14:03:33;;;;;;;2.47;2.10;;;25.10;94.10;;;;;;10495030;28;20814;-70
2023/09/05 14:08:34;;;;;;;2.20;1.90;;;25.20;93.90;;;;;;10487901;28;20408;-70
2023/09/05 14:13:35;;;;;;;3.20;2.30;;;25.30;93.80;;;;;;10486429;28;20417;-70
2023/09/05 14:18:36;;;;;;;2.30;2.10;;;25.40;93.60;;;;;;10494655;28;20931;-69
2023/09/05 14:23:40;;;;;;;2.50;2.00;;;25.60;93.70;;;;;;10487803;28;20396;-69
2023/09/05 14:28:41;;;;;;;5.20;2.20;;;25.60;93.70;;;;;;10489580;28;20398;-70
2023/09/05 14:33:42;;;;;;;2.20;2.00;;;25.80;93.50;;;;;;10483334;28;20402;-70
2023/09/05 14:38:43;;;;;;;2.20;2.00;;;25.90;93.50;;;;;;10483099;28;20403;-69
2023/09/05 14:43:43;;;;;;;2.20;2.00;;;26.00;93.40;;;;;;10492440;28;20946;-70
2023/09/05 14:48:44;;;;;;;2.05;1.83;;;26.10;93.30;;;;;;10496369;28;20774;-69
2023/09/05 14:53:45;;;;;;;2.37;2.10;;;26.20;93.20;;;;;;10496067;28;20422;-69
2023/09/05 14:58:46;;;;;;;2.30;2.10;;;26.30;93.00;;;;;;10490258;28;20418;-71
2023/09/05 15:03:46;;;;;;;2.03;1.83;;;26.40;92.80;;;;;;10490586;28;20399;-71
2023/09/05 15:08:47;;;;;;;1.93;1.80;;;26.60;92.80;;;;;;10492085;28;20403;-70
2023/09/05 15:13:48;;;;;;;2.40;1.90;;;26.70;92.70;;;;;;10500649;28;20426;-71
2023/09/05 15:18:48;;;;;;;2.00;1.80;;;26.80;92.90;;;;;;10503985;28;20450;-71
2023/09/05 15:23:49;;;;;;;2.13;1.77;;;26.90;92.50;;;;;;10503868;28;20478;-70
2023/09/05 15:28:49;;;;;;;2.87;1.80;;;27.10;92.30;;;;;;10501135;28;20938;-70
2023/09/05 15:33:52;;;;;;;6.05;2.50;;;27.50;91.30;;;;;;10501414;28;20407;-70
2023/09/05 15:38:52;;;;;;;5.63;2.30;;;27.80;90.70;;;;;;10493186;28;20408;-70
2023/09/05 15:43:53;;;;;;;2.50;1.88;;;28.00;90.00;;;;;;10493554;28;21032;-70
2023/09/05 15:48:55;;;;;;;4.23;2.20;;;27.90;90.20;;;;;;10495231;28;20674;-70
2023/09/05 15:53:56;;;;;;;5.05;2.80;;;27.90;90.70;;;;;;10489746;28;20415;-69
2023/09/05 15:58:56;;;;;;;4.37;2.57;;;27.80;90.80;;;;;;10486029;28;20407;-70
2023/09/05 16:03:57;;;;;;;3.50;2.30;;;27.70;90.70;;;;;;10488064;28;20479;-71
2023/09/05 16:08:57;;;;;;;3.47;2.10;;;27.60;90.50;;;;;;10489677;28;20693;-70
2023/09/05 16:13:58;;;;;;;3.37;2.00;;;27.50;91.60;;;;;;10483829;28;20883;-69
2023/09/05 16:18:59;;;;;;;4.93;2.00;;;27.40;91.30;;;;;;10481830;28;20557;-68
2023/09/05 16:24:00;;;;;;;4.50;1.93;;;27.40;91.50;;;;;;10487605;28;20476;-71
2023/09/05 16:29:01;;;;;;;2.47;1.90;;;27.30;91.90;;;;;;10487300;28;20482;-71
2023/09/05 16:34:02;;;;;;;4.10;2.03;;;27.30;92.20;;;;;;10470787;28;20414;-71
2023/09/05 16:39:06;;;;;;;2.92;1.90;;;27.20;92.70;;;;;;10477117;28;20790;-70
2023/09/05 16:44:12;;;;;;;4.50;2.30;;;27.20;92.20;;;;;;10479368;28;20649;-72
2023/09/05 16:49:13;;;;;;;3.90;1.92;;;27.20;92.70;;;;;;10493675;28;20868;-70
2023/09/05 16:54:13;;;;;;;2.80;2.00;;;27.10;92.50;;;;;;10483991;28;20538;-70
2023/09/05 16:59:14;;;;;;;2.90;2.00;;;27.10;92.90;;;;;;10489608;28;20925;-70
2023/09/05 17:04:17;;;;;;;3.90;2.00;;;27.10;93.00;;;;;;10487291;28;20849;-70
2023/09/05 17:09:17;;;;;;;3.40;2.20;;;27.10;93.30;;;;;;10483800;28;20835;-70
2023/09/05 17:14:18;;;;;;;3.63;2.17;;;26.90;93.20;;;;;;10489102;28;20390;-70
2023/09/05 17:19:19;;;;;;;3.00;2.03;;;26.90;93.50;;;;;;10504962;28;20778;-70
2023/09/05 17:24:20;;;;;;;2.60;2.03;;;26.80;93.80;;;;;;10486870;28;20418;-69
2023/09/05 17:29:20;;;;;;;3.80;2.03;;;26.70;93.80;;;;;;10474684;28;20488;-70
2023/09/05 17:34:21;;;;;;;4.30;2.40;;;26.70;93.80;;;;;;10487894;28;20819;-70
2023/09/05 17:39:22;;;;;;;5.57;2.50;;;26.60;93.80;;;;;;10482982;28;20423;-70
2023/09/05 17:44:27;;;;;;;3.03;2.50;;;26.60;93.80;;;;;;10481741;28;20403;-69
2023/09/05 17:49:28;;;;;;;3.20;2.50;;;26.60;93.70;;;;;;10485909;28;20455;-70
2023/09/05 17:54:30;;;;;;;3.90;2.37;;;26.60;93.70;;;;;;10475007;28;20399;-69
2023/09/05 17:59:31;;;;;;;4.68;2.50;;;26.50;93.60;;;;;;10486731;28;20504;-69
2023/09/05 18:04:33;;;;;;;3.17;2.55;;;26.50;93.60;;;;;;10488065;28;20927;-69
2023/09/05 18:09:33;;;;;;;3.28;2.65;;;26.50;93.60;;;;;;10484805;28;20413;-69
2023/09/05 18:14:35;;;;;;;3.47;2.70;;;26.40;93.60;;;;;;10487205;28;20418;-68
2023/09/05 18:19:35;;;;;;;3.95;2.47;;;26.40;93.60;;;;;;10479426;28;20401;-69
2023/09/05 18:24:36;;;;;;;3.13;2.70;;;26.30;93.50;;;;;;10483677;28;20404;-69
2023/09/05 18:29:37;;;;;;;3.30;2.70;;;26.30;93.60;;;;;;10483085;28;20399;-66
2023/09/05 18:34:45;;;;;;;3.63;2.80;;;26.20;93.60;;;;;;10467559;28;20419;-70
2023/09/05 18:39:45;;;;;;;3.37;2.73;;;26.20;93.60;;;;;;10477042;28;20543;-70
2023/09/05 18:44:46;;;;;;;3.30;3.00;;;26.20;93.70;;;;;;10483942;28;20979;-68
2023/09/05 18:49:47;;;;;;;4.65;3.00;;;26.10;93.70;;;;;;10486126;28;20390;-67
2023/09/05 18:54:47;;;;;;;3.47;3.03;;;26.10;93.70;;;;;;10481018;28;20499;-69
2023/09/05 18:59:48;;;;;;;3.37;2.87;;;26.00;93.70;;;;;;10488208;28;20868;-70
2023/09/05 19:04:48;;;;;;;3.43;3.13;;;26.00;93.70;;;;;;10484005;28;20397;-69
2023/09/05 19:09:49;;;;;;;4.10;3.13;;;26.00;93.70;;;;;;10479649;28;20774;-70
2023/09/05 19:14:50;;;;;;;3.50;3.20;;;25.90;93.80;;;;;;10492578;28;20390;-69
2023/09/05 19:19:50;;;;;;;3.70;3.10;;;25.90;93.80;;;;;;10485972;28;21669;-69
2023/09/05 19:24:51;;;;;;;3.93;3.10;;;25.80;93.80;;;;;;10483895;28;20400;-70
2023/09/05 19:29:52;;;;;;;3.70;3.20;;;25.80;93.80;;;;;;10486420;28;20407;-70
2023/09/05 19:34:54;;;;;;;3.83;3.22;;;25.80;93.80;;;;;;10480762;28;20417;-70
2023/09/05 19:39:54;;;;;;;3.87;3.20;;;25.70;93.80;;;;;;10483720;28;20411;-70
2023/09/05 19:44:59;;;;;;;3.80;3.38;;;25.70;93.90;;;;;;10490087;28;20451;-69
2023/09/05 19:49:59;;;;;;;3.53;3.22;;;25.60;93.90;;;;;;10487349;28;20448;-69
2023/09/05 19:55:01;;;;;;;5.03;3.63;;;25.60;93.90;;;;;;10491838;28;20504;-68
2023/09/05 20:00:01;;;;;;;4.18;3.35;;;25.50;93.90;;;;;;10497078;28;20398;-70
2023/09/05 20:05:03;;;;;;;3.80;3.40;;;25.50;94.00;;;;;;10490297;28;20398;-69
2023/09/05 20:10:04;;;;;;;4.78;3.60;;;25.50;94.00;;;;;;10490264;28;20906;-70
2023/09/05 20:15:06;;;;;;;3.83;3.50;;;25.40;94.00;;;;;;10490103;28;20404;-73
2023/09/05 20:20:09;;;;;;;4.03;3.60;;;25.40;94.00;;;;;;10486534;28;20424;-69
2023/09/05 20:25:10;;;;;;;3.90;3.50;;;25.40;94.00;;;;;;10482477;28;20404;-69
2023/09/05 20:30:11;;;;;;;4.50;3.60;;;25.30;94.00;;;;;;10485966;28;20440;-69
2023/09/05 20:35:13;;;;;;;4.17;3.63;;;25.30;94.00;;;;;;10488362;28;20894;-68
2023/09/05 20:40:14;;;;;;;4.20;3.80;;;25.20;94.00;;;;;;10483329;28;20761;-69
2023/09/05 20:45:15;;;;;;;4.03;3.63;;;25.20;94.00;;;;;;10486215;28;20404;-68
2023/09/05 20:50:15;;;;;;;4.00;3.60;;;25.20;94.00;;;;;;10479677;28;20404;-68
2023/09/05 20:55:16;;;;;;;4.60;4.10;;;25.20;94.10;;;;;;10488657;28;20409;-69
2023/09/05 21:00:18;;;;;;;3.87;3.43;;;25.10;94.00;;;;;;10487392;28;20611;-68
2023/09/05 21:05:19;;;;;;;3.90;3.50;;;25.10;94.10;;;;;;10481064;28;20413;-68
2023/09/05 21:10:19;;;;;;;4.60;4.03;;;25.00;94.10;;;;;;10472654;28;20407;-68
2023/09/05 21:15:20;;;;;;;4.72;4.03;;;25.00;94.00;;;;;;10485748;28;20425;-69
2023/09/05 21:20:21;;;;;;;4.97;3.90;;;24.90;94.00;;;;;;10478883;28;20417;-69
2023/09/05 21:25:21;;;;;;;4.75;3.92;;;24.90;94.10;;;;;;10483574;28;20399;-69
2023/09/05 21:30:22;;;;;;;4.93;3.80;;;24.90;94.10;;;;;;10483672;28;20727;-68
2023/09/05 21:35:23;;;;;;;4.60;3.83;;;24.80;94.20;;;;;;10484056;28;20413;-69
2023/09/05 21:40:23;;;;;;;4.40;3.87;;;24.80;94.10;;;;;;10486726;28;20494;-69
2023/09/05 21:45:30;;;;;;;4.75;4.07;;;24.80;94.10;;;;;;10487302;28;20410;-68
2023/09/05 21:50:31;;;;;;;4.97;4.03;;;24.70;94.10;;;;;;10482164;28;20411;-69
2023/09/05 21:55:32;;;;;;;4.30;3.90;;;24.70;94.10;;;;;;10481074;28;20400;-67
2023/09/05 22:00:41;;;;;;;4.88;4.20;;;24.70;94.10;;;;;;10476700;28;21197;-68
2023/09/05 22:05:42;;;;;;;4.50;4.10;;;24.60;94.10;;;;;;10484258;28;20406;-69
2023/09/05 22:10:43;;;;;;;4.80;4.10;;;24.60;94.10;;;;;;10474183;28;20509;-69
2023/09/05 22:15:52;;;;;;;5.50;4.35;;;24.50;94.10;;;;;;10485856;28;20988;-69
2023/09/05 22:20:52;;;;;;;6.03;4.22;;;24.50;94.10;;;;;;10474588;28;20438;-70
2023/09/05 22:25:53;;;;;;;6.27;4.30;;;24.40;94.10;;;;;;10469656;28;20447;-69
2023/09/05 22:31:02;;;;;;;5.78;4.35;;;24.40;94.10;;;;;;10485998;28;20404;-69
2023/09/05 22:36:03;;;;;;;5.18;4.30;;;24.40;94.10;;;;;;10482768;28;20476;-69
2023/09/05 22:41:04;;;;;;;5.17;4.00;;;24.40;94.20;;;;;;10478087;28;20421;-69
2023/09/05 22:46:05;;;;;;;5.07;4.20;;;24.40;94.20;;;;;;10478871;28;20454;-67
2023/09/05 22:51:06;;;;;;;5.40;4.47;;;24.30;94.20;;;;;;10480387;28;20386;-68
2023/09/05 22:56:17;;;;;;;5.50;4.60;;;24.30;94.10;;;;;;10484939;28;20408;-69
2023/09/05 23:01:19;;;;;;;5.33;4.23;;;24.20;94.10;;;;;;10479731;28;20506;-69
2023/09/05 23:06:19;;;;;;;5.63;4.20;;;24.20;94.10;;;;;;10488168;28;20867;-69
2023/09/05 23:11:25;;;;;;;4.95;4.40;;;24.20;94.20;;;;;;10482074;28;20401;-69
2023/09/05 23:16:25;;;;;;;5.37;4.20;;;24.10;94.10;;;;;;10490705;28;20392;-69
2023/09/05 23:21:27;;;;;;;5.27;4.40;;;24.10;94.10;;;;;;10486278;28;20430;-69
2023/09/05 23:26:29;;;;;;;4.63;3.93;;;24.10;94.10;;;;;;10482321;28;20970;-68
2023/09/05 23:31:31;;;;;;;4.87;4.33;;;24.00;94.10;;;;;;10494300;28;20452;-68
2023/09/05 23:36:31;;;;;;;5.20;4.47;;;24.00;94.10;;;;;;10494436;28;20845;-68
2023/09/05 23:41:32;;;;;;;5.90;4.40;;;24.00;94.10;;;;;;10486612;28;20506;-69
2023/09/05 23:46:35;;;;;;;4.80;4.03;;;24.00;94.10;;;;;;10494691;28;20763;-68
2023/09/05 23:51:35;;;;;;;4.78;3.97;;;23.90;94.10;;;;;;10495303;28;20500;-68
2023/09/05 23:56:36;;;;;;;6.57;4.53;;;23.80;94.10;;;;;;10492251;28;20449;-68
